sensor_id;sensor_type;location;lat;lon;timestamp;temperature;humidity
5419;DHT22;2732;52.092;11.556;2023-01-29T00:03:12;-1.70;99.90
5419;DHT22;2732;52.092;11.556;2023-01-29T00:08:13;-1.70;99.90
5419;DHT22;2732;52.092;11.556;2023-01-29T00:13:14;-1.70;99.90
5419;DHT22;2732;52.092;11.556;2023-01-29T00:18:14;-1.70;99.90
5419;DHT22;2732;52.092;11.556;2023-01-29T00:23:15;-1.70;99.90
5419;DHT22;2732;52.092;11.556;2023-01-29T00:28:16;-1.70;99.90
5419;DHT22;2732;52.092;11.556;2023-01-29T00:33:16;-1.80;99.90
5419;DHT22;2732;52.092;11.556;2023-01-29T00:38:17;-1.80;99.90
5419;DHT22;2732;52.092;11.556;2023-01-29T00:43:17;-1.80;99.90
5419;DHT22;2732;52.092;11.556;2023-01-29T00:48:37;-1.80;99.90
5419;DHT22;2732;52.092;11.556;2023-01-29T00:53:38;-1.80;99.90
5419;DHT22;2732;52.092;11.556;2023-01-29T00:58:38;-1.80;99.90
5419;DHT22;2732;52.092;11.556;2023-01-29T01:03:39;-1.80;99.90
5419;DHT22;2732;52.092;11.556;2023-01-29T01:08:41;-1.80;99.90
5419;DHT22;2732;52.092;11.556;2023-01-29T01:14:00;-1.80;99.90
5419;DHT22;2732;52.092;11.556;2023-01-29T01:19:02;-1.80;99.90
5419;DHT22;2732;52.092;11.556;2023-01-29T01:24:04;-1.70;99.90
5419;DHT22;2732;52.092;11.556;2023-01-29T01:29:05;-1.70;99.90
5419;DHT22;2732;52.092;11.556;2023-01-29T01:34:07;-1.70;99.90
5419;DHT22;2732;52.092;11.556;2023-01-29T01:39:07;-1.60;99.90
5419;DHT22;2732;52.092;11.556;2023-01-29T01:49:52;-1.50;99.90
5419;DHT22;2732;52.092;11.556;2023-01-29T01:54:53;-1.50;99.90
5419;DHT22;2732;52.092;11.556;2023-01-29T02:00:04;-1.40;99.90
5419;DHT22;2732;52.092;11.556;2023-01-29T02:05:10;-1.40;99.90
5419;DHT22;2732;52.092;11.556;2023-01-29T02:10:45;-1.40;99.90
5419;DHT22;2732;52.092;11.556;2023-01-29T02:15:47;-1.30;99.90
5419;DHT22;2732;52.092;11.556;2023-01-29T02:26:57;-1.20;99.90
5419;DHT22;2732;52.092;11.556;2023-01-29T02:37:31;-1.20;99.90
5419;DHT22;2732;52.092;11.556;2023-01-29T02:42:54;-1.10;99.90
5419;DHT22;2732;52.092;11.556;2023-01-29T02:48:01;-1.10;99.90
5419;DHT22;2732;52.092;11.556;2023-01-29T02:53:14;-1.10;99.90
5419;DHT22;2732;52.092;11.556;2023-01-29T02:58:37;-1.00;99.90
5419;DHT22;2732;52.092;11.556;2023-01-29T03:03:44;-1.00;99.90
5419;DHT22;2732;52.092;11.556;2023-01-29T03:09:04;-1.00;99.90
5419;DHT22;2732;52.092;11.556;2023-01-29T03:14:15;-1.00;99.90
5419;DHT22;2732;52.092;11.556;2023-01-29T03:19:35;-0.90;99.90
5419;DHT22;2732;52.092;11.556;2023-01-29T03:24:40;-0.90;99.90
5419;DHT22;2732;52.092;11.556;2023-01-29T03:30:04;-0.90;99.90
5419;DHT22;2732;52.092;11.556;2023-01-29T03:35:28;-0.90;99.90
5419;DHT22;2732;52.092;11.556;2023-01-29T03:51:31;-0.70;99.90
5419;DHT22;2732;52.092;11.556;2023-01-29T03:56:58;-0.70;99.90
5419;DHT22;2732;52.092;11.556;2023-01-29T04:02:06;-0.70;99.90
5419;DHT22;2732;52.092;11.556;2023-01-29T04:07:14;-0.70;99.90
5419;DHT22;2732;52.092;11.556;2023-01-29T04:12:23;-0.70;99.90
5419;DHT22;2732;52.092;11.556;2023-01-29T04:17:38;-0.70;99.90
5419;DHT22;2732;52.092;11.556;2023-01-29T04:22:45;-0.60;99.90
5419;DHT22;2732;52.092;11.556;2023-01-29T04:28:18;-0.60;99.90
5419;DHT22;2732;52.092;11.556;2023-01-29T04:33:43;-0.60;99.90
5419;DHT22;2732;52.092;11.556;2023-01-29T04:39:18;-0.60;99.90
5419;DHT22;2732;52.092;11.556;2023-01-29T04:55:16;-0.60;99.90
5419;DHT22;2732;52.092;11.556;2023-01-29T05:00:30;-0.60;99.90
5419;DHT22;2732;52.092;11.556;2023-01-29T05:05:35;-0.70;99.90
5419;DHT22;2732;52.092;11.556;2023-01-29T05:10:36;-0.70;99.90
5419;DHT22;2732;52.092;11.556;2023-01-29T05:15:43;-0.70;99.90
5419;DHT22;2732;52.092;11.556;2023-01-29T05:20:47;-0.70;99.90
5419;DHT22;2732;52.092;11.556;2023-01-29T05:25:49;-0.80;99.90
5419;DHT22;2732;52.092;11.556;2023-01-29T05:30:54;-0.70;99.90
5419;DHT22;2732;52.092;11.556;2023-01-29T05:35:57;-0.70;99.90
5419;DHT22;2732;52.092;11.556;2023-01-29T05:40:58;-0.70;99.90
5419;DHT22;2732;52.092;11.556;2023-01-29T05:46:00;-0.70;99.90
5419;DHT22;2732;52.092;11.556;2023-01-29T05:51:02;-0.60;99.90
5419;DHT22;2732;52.092;11.556;2023-01-29T05:56:04;-0.60;99.90
5419;DHT22;2732;52.092;11.556;2023-01-29T06:01:13;-0.60;99.90
5419;DHT22;2732;52.092;11.556;2023-01-29T06:06:15;-0.60;99.90
5419;DHT22;2732;52.092;11.556;2023-01-29T06:11:16;-0.60;99.90
5419;DHT22;2732;52.092;11.556;2023-01-29T06:16:17;-0.60;99.90
5419;DHT22;2732;52.092;11.556;2023-01-29T06:21:18;-0.60;99.90
5419;DHT22;2732;52.092;11.556;2023-01-29T06:26:18;-0.70;99.90
5419;DHT22;2732;52.092;11.556;2023-01-29T06:31:19;-0.70;99.90
5419;DHT22;2732;52.092;11.556;2023-01-29T06:36:20;-0.60;99.90
5419;DHT22;2732;52.092;11.556;2023-01-29T06:41:20;-0.60;99.90
5419;DHT22;2732;52.092;11.556;2023-01-29T06:46:24;-0.60;99.90
5419;DHT22;2732;52.092;11.556;2023-01-29T06:51:25;-0.60;99.90
5419;DHT22;2732;52.092;11.556;2023-01-29T06:56:25;-0.50;99.90
5419;DHT22;2732;52.092;11.556;2023-01-29T07:01:26;-0.50;99.90
5419;DHT22;2732;52.092;11.556;2023-01-29T07:06:28;-0.50;99.90
5419;DHT22;2732;52.092;11.556;2023-01-29T07:11:29;-0.40;99.90
5419;DHT22;2732;52.092;11.556;2023-01-29T07:16:29;-0.40;99.90
5419;DHT22;2732;52.092;11.556;2023-01-29T07:21:30;-0.30;99.90
5419;DHT22;2732;52.092;11.556;2023-01-29T07:26:31;-0.30;99.90
5419;DHT22;2732;52.092;11.556;2023-01-29T07:31:31;-0.30;99.90
5419;DHT22;2732;52.092;11.556;2023-01-29T07:36:32;-0.20;99.90
5419;DHT22;2732;52.092;11.556;2023-01-29T07:41:33;-0.20;99.90
5419;DHT22;2732;52.092;11.556;2023-01-29T07:46:33;-0.20;99.90
5419;DHT22;2732;52.092;11.556;2023-01-29T07:51:34;-0.10;99.90
5419;DHT22;2732;52.092;11.556;2023-01-29T07:56:35;-0.10;99.90
5419;DHT22;2732;52.092;11.556;2023-01-29T08:01:35;0.00;99.90
5419;DHT22;2732;52.092;11.556;2023-01-29T08:06:36;0.00;99.90
5419;DHT22;2732;52.092;11.556;2023-01-29T08:11:36;0.00;99.90
5419;DHT22;2732;52.092;11.556;2023-01-29T08:16:37;0.10;99.90
5419;DHT22;2732;52.092;11.556;2023-01-29T08:21:37;0.20;99.90
5419;DHT22;2732;52.092;11.556;2023-01-29T08:26:38;0.20;99.90
5419;DHT22;2732;52.092;11.556;2023-01-29T08:31:39;0.30;99.90
5419;DHT22;2732;52.092;11.556;2023-01-29T08:36:40;0.30;99.90
5419;DHT22;2732;52.092;11.556;2023-01-29T08:41:40;0.50;99.90
5419;DHT22;2732;52.092;11.556;2023-01-29T08:46:41;0.60;99.90
5419;DHT22;2732;52.092;11.556;2023-01-29T08:51:41;0.70;99.90
5419;DHT22;2732;52.092;11.556;2023-01-29T08:56:42;0.80;99.90
5419;DHT22;2732;52.092;11.556;2023-01-29T09:01:43;0.80;99.90
5419;DHT22;2732;52.092;11.556;2023-01-29T09:06:43;0.80;99.90
5419;DHT22;2732;52.092;11.556;2023-01-29T09:11:44;0.90;99.90
5419;DHT22;2732;52.092;11.556;2023-01-29T09:16:44;0.90;99.90
5419;DHT22;2732;52.092;11.556;2023-01-29T09:21:45;1.00;99.90
5419;DHT22;2732;52.092;11.556;2023-01-29T09:26:46;1.10;99.90
5419;DHT22;2732;52.092;11.556;2023-01-29T09:31:46;1.20;99.90
5419;DHT22;2732;52.092;11.556;2023-01-29T09:36:47;1.30;99.90
5419;DHT22;2732;52.092;11.556;2023-01-29T09:42:15;1.40;99.90
5419;DHT22;2732;52.092;11.556;2023-01-29T09:47:19;1.50;99.90
5419;DHT22;2732;52.092;11.556;2023-01-29T09:52:24;1.60;99.90
5419;DHT22;2732;52.092;11.556;2023-01-29T09:57:48;1.60;99.90
5419;DHT22;2732;52.092;11.556;2023-01-29T10:14:26;1.80;99.90
5419;DHT22;2732;52.092;11.556;2023-01-29T10:19:44;1.80;99.90
5419;DHT22;2732;52.092;11.556;2023-01-29T10:24:54;1.90;99.90
5419;DHT22;2732;52.092;11.556;2023-01-29T10:29:57;1.90;99.90
5419;DHT22;2732;52.092;11.556;2023-01-29T10:35:14;1.90;99.90
5419;DHT22;2732;52.092;11.556;2023-01-29T10:40:36;1.90;99.90
5419;DHT22;2732;52.092;11.556;2023-01-29T10:51:57;2.20;99.90
5419;DHT22;2732;52.092;11.556;2023-01-29T11:02:52;2.70;99.90
5419;DHT22;2732;52.092;11.556;2023-01-29T11:08:10;2.70;99.90
5419;DHT22;2732;52.092;11.556;2023-01-29T11:13:14;2.70;99.90
5419;DHT22;2732;52.092;11.556;2023-01-29T11:18:15;2.70;99.90
5419;DHT22;2732;52.092;11.556;2023-01-29T11:23:25;2.70;99.90
5419;DHT22;2732;52.092;11.556;2023-01-29T11:28:39;2.70;99.90
5419;DHT22;2732;52.092;11.556;2023-01-29T11:33:45;2.60;99.90
5419;DHT22;2732;52.092;11.556;2023-01-29T11:38:45;2.60;99.90
5419;DHT22;2732;52.092;11.556;2023-01-29T11:43:46;2.60;99.90
5419;DHT22;2732;52.092;11.556;2023-01-29T11:48:49;2.60;99.90
5419;DHT22;2732;52.092;11.556;2023-01-29T11:53:58;2.60;99.90
5419;DHT22;2732;52.092;11.556;2023-01-29T11:59:01;2.60;99.90
5419;DHT22;2732;52.092;11.556;2023-01-29T12:04:21;2.60;99.90
5419;DHT22;2732;52.092;11.556;2023-01-29T12:09:25;2.60;99.90
5419;DHT22;2732;52.092;11.556;2023-01-29T12:14:30;2.60;99.90
5419;DHT22;2732;52.092;11.556;2023-01-29T12:19:46;2.70;99.90
5419;DHT22;2732;52.092;11.556;2023-01-29T12:24:56;2.60;99.90
5419;DHT22;2732;52.092;11.556;2023-01-29T12:30:10;2.60;99.90
5419;DHT22;2732;52.092;11.556;2023-01-29T12:41:02;2.60;99.90
5419;DHT22;2732;52.092;11.556;2023-01-29T12:46:11;2.60;99.90
5419;DHT22;2732;52.092;11.556;2023-01-29T12:51:21;2.60;99.90
5419;DHT22;2732;52.092;11.556;2023-01-29T12:56:31;2.60;99.90
5419;DHT22;2732;52.092;11.556;2023-01-29T13:01:55;2.70;99.90
5419;DHT22;2732;52.092;11.556;2023-01-29T13:07:18;2.70;99.90
5419;DHT22;2732;52.092;11.556;2023-01-29T13:12:36;2.70;99.90
5419;DHT22;2732;52.092;11.556;2023-01-29T13:17:42;2.70;99.90
5419;DHT22;2732;52.092;11.556;2023-01-29T13:22:45;2.70;99.90
5419;DHT22;2732;52.092;11.556;2023-01-29T13:27:47;2.60;99.90
5419;DHT22;2732;52.092;11.556;2023-01-29T13:32:51;2.60;99.90
5419;DHT22;2732;52.092;11.556;2023-01-29T13:37:54;2.60;99.90
5419;DHT22;2732;52.092;11.556;2023-01-29T13:42:55;2.60;99.90
5419;DHT22;2732;52.092;11.556;2023-01-29T13:48:08;2.60;99.90
5419;DHT22;2732;52.092;11.556;2023-01-29T13:53:37;2.60;99.90
5419;DHT22;2732;52.092;11.556;2023-01-29T14:03:44;2.60;99.90
5419;DHT22;2732;52.092;11.556;2023-01-29T14:08:50;2.60;99.90
5419;DHT22;2732;52.092;11.556;2023-01-29T14:13:51;2.60;99.90
5419;DHT22;2732;52.092;11.556;2023-01-29T14:19:00;2.60;99.90
5419;DHT22;2732;52.092;11.556;2023-01-29T14:24:18;2.60;99.90
5419;DHT22;2732;52.092;11.556;2023-01-29T14:29:27;2.60;99.90
5419;DHT22;2732;52.092;11.556;2023-01-29T14:40:27;2.70;99.90
5419;DHT22;2732;52.092;11.556;2023-01-29T14:45:29;2.70;99.90
5419;DHT22;2732;52.092;11.556;2023-01-29T15:00:58;2.80;99.90
5419;DHT22;2732;52.092;11.556;2023-01-29T15:06:00;2.70;99.90
5419;DHT22;2732;52.092;11.556;2023-01-29T15:11:07;2.70;99.90
5419;DHT22;2732;52.092;11.556;2023-01-29T15:22:19;2.50;99.90
5419;DHT22;2732;52.092;11.556;2023-01-29T15:27:20;2.50;99.90
5419;DHT22;2732;52.092;11.556;2023-01-29T15:32:33;2.40;99.90
5419;DHT22;2732;52.092;11.556;2023-01-29T15:37:36;2.40;99.90
5419;DHT22;2732;52.092;11.556;2023-01-29T15:42:42;2.30;99.90
5419;DHT22;2732;52.092;11.556;2023-01-29T15:47:45;2.30;99.90
5419;DHT22;2732;52.092;11.556;2023-01-29T15:52:53;2.20;99.90
5419;DHT22;2732;52.092;11.556;2023-01-29T15:57:55;2.20;99.90
5419;DHT22;2732;52.092;11.556;2023-01-29T16:02:57;2.20;99.90
5419;DHT22;2732;52.092;11.556;2023-01-29T16:08:00;2.20;99.90
5419;DHT22;2732;52.092;11.556;2023-01-29T16:13:02;2.10;99.90
5419;DHT22;2732;52.092;11.556;2023-01-29T16:18:24;2.10;99.90
5419;DHT22;2732;52.092;11.556;2023-01-29T16:23:30;2.00;99.90
5419;DHT22;2732;52.092;11.556;2023-01-29T16:28:42;2.00;99.90
5419;DHT22;2732;52.092;11.556;2023-01-29T16:33:44;2.00;99.90
5419;DHT22;2732;52.092;11.556;2023-01-29T16:38:54;1.90;99.90
5419;DHT22;2732;52.092;11.556;2023-01-29T16:54:30;1.70;99.90
5419;DHT22;2732;52.092;11.556;2023-01-29T16:59:35;1.70;99.90
5419;DHT22;2732;52.092;11.556;2023-01-29T17:04:39;1.80;99.90
5419;DHT22;2732;52.092;11.556;2023-01-29T17:09:40;1.70;99.90
5419;DHT22;2732;52.092;11.556;2023-01-29T17:14:51;1.70;99.90
5419;DHT22;2732;52.092;11.556;2023-01-29T17:19:54;1.70;99.90
5419;DHT22;2732;52.092;11.556;2023-01-29T17:24:54;1.80;99.90
5419;DHT22;2732;52.092;11.556;2023-01-29T17:29:55;1.80;99.90
5419;DHT22;2732;52.092;11.556;2023-01-29T17:34:55;1.80;99.90
5419;DHT22;2732;52.092;11.556;2023-01-29T17:39:56;1.80;99.90
5419;DHT22;2732;52.092;11.556;2023-01-29T17:44:57;1.80;99.90
5419;DHT22;2732;52.092;11.556;2023-01-29T17:49:58;1.70;99.90
5419;DHT22;2732;52.092;11.556;2023-01-29T17:54:59;1.70;99.90
5419;DHT22;2732;52.092;11.556;2023-01-29T18:00:00;1.70;99.90
5419;DHT22;2732;52.092;11.556;2023-01-29T18:05:00;1.70;99.90
5419;DHT22;2732;52.092;11.556;2023-01-29T18:10:01;1.70;99.90
5419;DHT22;2732;52.092;11.556;2023-01-29T18:15:02;1.60;99.90
5419;DHT22;2732;52.092;11.556;2023-01-29T18:20:05;1.60;99.90
5419;DHT22;2732;52.092;11.556;2023-01-29T18:25:15;1.60;99.90
5419;DHT22;2732;52.092;11.556;2023-01-29T18:30:16;1.60;99.90
5419;DHT22;2732;52.092;11.556;2023-01-29T18:35:17;1.60;99.90
5419;DHT22;2732;52.092;11.556;2023-01-29T18:40:18;1.60;99.90
5419;DHT22;2732;52.092;11.556;2023-01-29T18:45:18;1.60;99.90
5419;DHT22;2732;52.092;11.556;2023-01-29T18:50:19;1.60;99.90
5419;DHT22;2732;52.092;11.556;2023-01-29T18:55:22;1.60;99.90
5419;DHT22;2732;52.092;11.556;2023-01-29T19:00:23;1.50;99.90
5419;DHT22;2732;52.092;11.556;2023-01-29T19:05:24;1.60;99.90
5419;DHT22;2732;52.092;11.556;2023-01-29T19:10:25;1.60;99.90
5419;DHT22;2732;52.092;11.556;2023-01-29T19:15:25;1.50;99.90
5419;DHT22;2732;52.092;11.556;2023-01-29T19:20:26;1.50;99.90
5419;DHT22;2732;52.092;11.556;2023-01-29T19:25:27;1.50;99.90
5419;DHT22;2732;52.092;11.556;2023-01-29T19:30:27;1.50;99.90
5419;DHT22;2732;52.092;11.556;2023-01-29T19:35:28;1.50;99.90
5419;DHT22;2732;52.092;11.556;2023-01-29T19:40:29;1.50;99.90
5419;DHT22;2732;52.092;11.556;2023-01-29T19:45:29;1.50;99.90
5419;DHT22;2732;52.092;11.556;2023-01-29T19:50:30;1.50;99.90
5419;DHT22;2732;52.092;11.556;2023-01-29T19:55:30;1.50;99.90
5419;DHT22;2732;52.092;11.556;2023-01-29T20:00:31;1.50;99.90
5419;DHT22;2732;52.092;11.556;2023-01-29T20:05:34;1.50;99.90
5419;DHT22;2732;52.092;11.556;2023-01-29T20:10:36;1.40;99.90
5419;DHT22;2732;52.092;11.556;2023-01-29T20:15:41;1.40;99.90
5419;DHT22;2732;52.092;11.556;2023-01-29T20:20:48;1.40;99.90
5419;DHT22;2732;52.092;11.556;2023-01-29T20:25:49;1.40;99.90
5419;DHT22;2732;52.092;11.556;2023-01-29T20:30:50;1.50;99.90
5419;DHT22;2732;52.092;11.556;2023-01-29T20:35:56;1.40;99.90
5419;DHT22;2732;52.092;11.556;2023-01-29T20:41:14;1.40;99.90
5419;DHT22;2732;52.092;11.556;2023-01-29T20:46:16;1.40;99.90
5419;DHT22;2732;52.092;11.556;2023-01-29T20:51:17;1.40;99.90
5419;DHT22;2732;52.092;11.556;2023-01-29T20:56:18;1.40;99.90
5419;DHT22;2732;52.092;11.556;2023-01-29T21:01:20;1.40;99.90
5419;DHT22;2732;52.092;11.556;2023-01-29T21:06:20;1.40;99.90
5419;DHT22;2732;52.092;11.556;2023-01-29T21:11:21;1.40;99.90
5419;DHT22;2732;52.092;11.556;2023-01-29T21:16:23;1.30;99.90
5419;DHT22;2732;52.092;11.556;2023-01-29T21:21:25;1.30;99.90
5419;DHT22;2732;52.092;11.556;2023-01-29T21:26:26;1.30;99.90
5419;DHT22;2732;52.092;11.556;2023-01-29T21:31:26;1.30;99.90
5419;DHT22;2732;52.092;11.556;2023-01-29T21:36:27;1.30;99.90
5419;DHT22;2732;52.092;11.556;2023-01-29T21:41:27;1.30;99.90
5419;DHT22;2732;52.092;11.556;2023-01-29T21:46:54;1.30;99.90
5419;DHT22;2732;52.092;11.556;2023-01-29T21:51:54;1.30;99.90
5419;DHT22;2732;52.092;11.556;2023-01-29T21:56:55;1.30;99.90
5419;DHT22;2732;52.092;11.556;2023-01-29T22:01:56;1.40;99.90
5419;DHT22;2732;52.092;11.556;2023-01-29T22:06:57;1.30;99.90
5419;DHT22;2732;52.092;11.556;2023-01-29T22:11:58;1.30;99.90
5419;DHT22;2732;52.092;11.556;2023-01-29T22:16:58;1.40;99.90
5419;DHT22;2732;52.092;11.556;2023-01-29T22:21:59;1.40;99.90
5419;DHT22;2732;52.092;11.556;2023-01-29T22:27:00;1.40;99.90
5419;DHT22;2732;52.092;11.556;2023-01-29T22:32:01;1.30;99.90
5419;DHT22;2732;52.092;11.556;2023-01-29T22:37:01;1.40;99.90
5419;DHT22;2732;52.092;11.556;2023-01-29T22:42:02;1.30;99.90
5419;DHT22;2732;52.092;11.556;2023-01-29T22:47:03;1.40;99.90
5419;DHT22;2732;52.092;11.556;2023-01-29T22:52:03;1.40;99.90
5419;DHT22;2732;52.092;11.556;2023-01-29T22:57:12;1.40;99.90
5419;DHT22;2732;52.092;11.556;2023-01-29T23:02:13;1.40;99.90
5419;DHT22;2732;52.092;11.556;2023-01-29T23:07:14;1.30;99.90
5419;DHT22;2732;52.092;11.556;2023-01-29T23:12:15;1.30;99.90
5419;DHT22;2732;52.092;11.556;2023-01-29T23:17:16;1.30;99.90
5419;DHT22;2732;52.092;11.556;2023-01-29T23:22:16;1.30;99.90
5419;DHT22;2732;52.092;11.556;2023-01-29T23:27:17;1.30;99.90
5419;DHT22;2732;52.092;11.556;2023-01-29T23:32:19;1.30;99.90
5419;DHT22;2732;52.092;11.556;2023-01-29T23:37:19;1.30;99.90
5419;DHT22;2732;52.092;11.556;2023-01-29T23:42:20;1.30;99.90
5419;DHT22;2732;52.092;11.556;2023-01-29T23:47:21;1.30;99.90
5419;DHT22;2732;52.092;11.556;2023-01-29T23:52:21;1.30;99.90
5419;DHT22;2732;52.092;11.556;2023-01-29T23:57:22;1.30;99.90
